createdAt,value
2018-08-03T00:02:26.756Z,9.40
2018-08-03T00:04:55.282Z,8.63
2018-08-03T00:07:23.758Z,6.80
2018-08-03T00:09:52.278Z,6.73
2018-08-03T00:12:20.755Z,7.27
2018-08-03T00:14:49.273Z,7.40
2018-08-03T00:17:17.805Z,6.50
2018-08-03T00:19:46.310Z,6.63
2018-08-03T00:22:14.783Z,7.00
2018-08-03T00:24:43.301Z,6.20
2018-08-03T00:27:11.767Z,8.03
2018-08-03T00:29:40.271Z,11.23
2018-08-03T00:32:08.751Z,5.87
2018-08-03T00:34:37.276Z,6.80
2018-08-03T00:37:05.822Z,7.53
2018-08-03T00:39:34.619Z,10.83
2018-08-03T00:42:03.156Z,6.53
2018-08-03T00:44:31.658Z,6.37
2018-08-03T00:47:00.703Z,6.93
2018-08-03T00:49:29.191Z,6.87
2018-08-03T00:51:57.652Z,6.80
2018-08-03T00:54:26.138Z,6.67
2018-08-03T00:56:54.926Z,7.30
2018-08-03T00:59:23.424Z,6.63
2018-08-03T01:01:51.882Z,7.50
2018-08-03T01:04:20.380Z,6.57
2018-08-03T01:06:48.887Z,7.23
2018-08-03T01:09:17.049Z,7.20
2018-08-03T01:11:45.522Z,8.20
2018-08-03T01:14:14.003Z,7.67
2018-08-03T01:16:43.170Z,7.37
2018-08-03T01:19:14.694Z,7.10
2018-08-03T01:21:44.447Z,7.20
2018-08-03T01:24:12.955Z,7.03
2018-08-03T01:26:41.749Z,13.97
2018-08-03T01:29:10.209Z,6.50
2018-08-03T01:31:38.646Z,7.53
2018-08-03T01:34:07.464Z,7.53
2018-08-03T01:36:35.886Z,11.30
2018-08-03T01:39:06.795Z,6.67
2018-08-03T01:41:35.335Z,7.30
2018-08-03T01:44:03.819Z,8.10
2018-08-03T01:46:32.584Z,7.47
2018-08-03T01:49:01.018Z,7.10
2018-08-03T01:51:29.439Z,6.63
2018-08-03T01:53:57.880Z,8.03
2018-08-03T01:56:26.609Z,6.47
2018-08-03T01:58:55.046Z,7.53
2018-08-03T02:01:23.519Z,6.77
2018-08-03T02:03:52.382Z,8.23
2018-08-03T02:06:20.849Z,7.47
2018-08-03T02:08:49.620Z,7.47
2018-08-03T02:11:18.070Z,7.50
2018-08-03T02:13:46.490Z,6.70
2018-08-03T02:16:14.950Z,8.27
2018-08-03T02:18:43.931Z,7.90
2018-08-03T02:21:12.642Z,8.40
2018-08-03T02:23:41.071Z,9.20
2018-08-03T02:26:09.546Z,6.93
2018-08-03T02:28:38.498Z,7.50
2018-08-03T02:31:06.939Z,7.70
2018-08-03T02:33:35.419Z,7.43
2018-08-03T02:36:04.503Z,7.77
2018-08-03T02:38:32.927Z,6.93
2018-08-03T02:41:01.416Z,6.40
2018-08-03T02:43:29.817Z,8.07
2018-08-03T02:45:58.249Z,8.27
2018-08-03T02:48:26.692Z,7.57
2018-08-03T02:50:55.139Z,8.23
2018-08-03T02:53:23.624Z,6.77
2018-08-03T02:55:52.058Z,7.97
2018-08-03T02:58:20.488Z,8.07
2018-08-03T03:00:48.938Z,8.10
2018-08-03T03:03:17.695Z,7.17
2018-08-03T03:05:46.214Z,7.73
2018-08-03T03:08:15.011Z,7.80
2018-08-03T03:10:43.534Z,8.30
2018-08-03T03:13:12.290Z,9.00
2018-08-03T03:15:40.857Z,7.60
2018-08-03T03:18:09.326Z,8.27
2018-08-03T03:20:37.842Z,7.20
2018-08-03T03:23:06.371Z,9.37
2018-08-03T03:25:34.864Z,9.40
2018-08-03T03:28:03.334Z,10.10
2018-08-03T03:30:31.890Z,9.30
2018-08-03T03:33:00.980Z,8.87
2018-08-03T03:35:29.462Z,8.77
2018-08-03T03:37:58.522Z,9.87
2018-08-03T03:40:27.003Z,8.53
2018-08-03T03:42:55.534Z,9.17
2018-08-03T03:45:24.330Z,8.47
2018-08-03T03:47:53.074Z,8.90
2018-08-03T03:50:21.563Z,9.03
2018-08-03T03:52:50.040Z,8.03
2018-08-03T03:55:18.522Z,8.60
2018-08-03T03:57:46.974Z,9.20
2018-08-03T04:00:15.486Z,8.77
2018-08-03T04:02:43.946Z,8.97
2018-08-03T04:05:12.719Z,9.20
2018-08-03T04:07:41.437Z,9.03
2018-08-03T04:10:10.483Z,9.60
2018-08-03T04:12:39.301Z,9.53
2018-08-03T04:15:07.791Z,10.20
2018-08-03T04:17:36.239Z,10.87
2018-08-03T04:20:04.995Z,11.43
2018-08-03T04:22:33.771Z,8.80
2018-08-03T04:25:02.258Z,9.13
2018-08-03T04:27:30.694Z,10.57
2018-08-03T04:29:59.127Z,9.60
2018-08-03T04:32:27.596Z,9.40
2018-08-03T04:34:56.332Z,12.40
2018-08-03T04:37:24.757Z,9.07
2018-08-03T04:39:53.191Z,9.30
2018-08-03T04:42:21.738Z,9.90
2018-08-03T04:44:50.405Z,8.70
2018-08-03T04:47:18.843Z,10.00
2018-08-03T04:49:47.253Z,11.23
2018-08-03T04:52:15.742Z,9.87
2018-08-03T04:54:44.214Z,9.60
2018-08-03T04:57:12.666Z,9.73
2018-08-03T04:59:41.082Z,9.30
2018-08-03T05:02:10.146Z,10.70
2018-08-03T05:04:38.685Z,9.33
2018-08-03T05:07:07.428Z,9.43
2018-08-03T05:09:36.113Z,9.63
2018-08-03T05:12:04.581Z,10.43
2018-08-03T05:14:33.281Z,10.30
2018-08-03T05:17:01.735Z,9.47
2018-08-03T05:19:30.156Z,9.23
2018-08-03T05:21:58.886Z,9.60
2018-08-03T05:24:27.307Z,9.43
2018-08-03T05:26:55.793Z,8.60
2018-08-03T05:29:24.454Z,10.50
2018-08-03T05:31:53.217Z,9.90
2018-08-03T05:34:21.718Z,9.40
2018-08-03T05:36:50.156Z,9.03
2018-08-03T05:39:18.623Z,10.30
2018-08-03T05:41:47.069Z,9.10
2018-08-03T05:44:16.246Z,8.90
2018-08-03T05:46:44.990Z,9.90
2018-08-03T05:49:13.661Z,9.47
2018-08-03T05:51:42.106Z,10.30
2018-08-03T05:54:10.565Z,9.63
2018-08-03T05:56:39.045Z,11.37
2018-08-03T05:59:07.758Z,9.13
2018-08-03T06:01:36.518Z,8.70
2018-08-03T06:04:05.035Z,10.87
2018-08-03T06:06:33.531Z,10.37
2018-08-03T06:09:01.966Z,8.87
2018-08-03T06:11:30.395Z,8.37
2018-08-03T06:13:58.830Z,8.73
2018-08-03T06:16:27.271Z,9.77
2018-08-03T06:18:55.970Z,9.20
2018-08-03T06:21:24.466Z,9.93
2018-08-03T06:23:52.922Z,9.20
2018-08-03T06:26:21.655Z,9.60
2018-08-03T06:28:50.117Z,9.63
2018-08-03T06:31:18.563Z,9.77
2018-08-03T06:33:47.089Z,9.30
2018-08-03T06:36:15.939Z,11.10
2018-08-03T06:38:44.362Z,9.43
2018-08-03T06:41:12.820Z,9.90
2018-08-03T06:43:41.302Z,9.07
2018-08-03T06:46:10.055Z,9.63
2018-08-03T06:48:38.770Z,8.60
2018-08-03T06:51:07.266Z,8.23
2018-08-03T06:53:35.412Z,9.30
2018-08-03T06:56:03.863Z,9.13
2018-08-03T06:58:32.651Z,9.87
2018-08-03T07:01:01.098Z,10.10
2018-08-03T07:03:29.629Z,12.17
2018-08-03T07:05:58.119Z,7.97
2018-08-03T07:08:26.878Z,8.30
2018-08-03T07:10:55.323Z,8.50
2018-08-03T07:13:24.077Z,8.80
2018-08-03T07:15:52.525Z,8.50
2018-08-03T07:18:21.270Z,8.50
2018-08-03T07:20:50.020Z,9.47
2018-08-03T07:23:18.457Z,9.80
2018-08-03T07:25:46.922Z,9.70
2018-08-03T07:28:15.416Z,9.27
2018-08-03T07:30:43.871Z,8.83
2018-08-03T07:33:12.321Z,8.57
2018-08-03T07:35:40.826Z,8.80
2018-08-03T07:38:09.272Z,9.20
2018-08-03T07:40:37.734Z,8.73
2018-08-03T07:43:06.461Z,8.87
2018-08-03T07:45:35.523Z,9.03
2018-08-03T07:48:03.969Z,8.73
2018-08-03T07:50:32.914Z,8.30
2018-08-03T07:53:01.514Z,7.00
2018-08-03T07:55:29.926Z,7.77
2018-08-03T07:57:58.358Z,8.77
2018-08-03T08:00:26.762Z,7.40
2018-08-03T08:02:55.513Z,7.73
2018-08-03T08:05:24.234Z,10.03
2018-08-03T08:07:52.686Z,7.57
2018-08-03T08:10:21.332Z,9.00
2018-08-03T08:12:50.069Z,8.70
2018-08-03T08:15:18.530Z,7.27
2018-08-03T08:17:46.975Z,7.27
2018-08-03T08:20:15.449Z,8.17
2018-08-03T08:22:43.949Z,7.97
2018-08-03T08:25:12.103Z,9.00
2018-08-03T08:27:40.816Z,7.00
2018-08-03T08:30:09.448Z,7.30
2018-08-03T08:32:37.890Z,6.73
2018-08-03T08:35:06.900Z,9.50
2018-08-03T08:37:35.887Z,9.90
2018-08-03T08:40:04.909Z,8.73
2018-08-03T08:42:33.666Z,7.57
2018-08-03T08:45:02.082Z,7.83
2018-08-03T08:47:31.136Z,5.97
2018-08-03T08:49:59.709Z,8.13
2018-08-03T08:52:28.809Z,10.60
2018-08-03T08:54:57.498Z,7.43
2018-08-03T08:57:26.547Z,7.17
2018-08-03T08:59:54.980Z,7.10
2018-08-03T09:02:23.406Z,7.13
2018-08-03T09:04:51.841Z,6.87
2018-08-03T09:07:20.301Z,8.33
2018-08-03T09:09:48.732Z,9.00
2018-08-03T09:12:17.219Z,7.17
2018-08-03T09:14:45.657Z,6.80
2018-08-03T09:17:14.214Z,6.37
2018-08-03T09:19:42.682Z,6.70
2018-08-03T09:22:11.427Z,6.93
2018-08-03T09:24:39.918Z,7.10
2018-08-03T09:27:08.978Z,9.90
2018-08-03T09:29:37.412Z,9.03
2018-08-03T09:32:06.210Z,10.20
2018-08-03T09:34:34.658Z,7.70
2018-08-03T09:37:03.098Z,11.77
2018-08-03T09:39:31.831Z,6.60
2018-08-03T09:42:00.306Z,9.77
2018-08-03T09:44:28.760Z,7.27
2018-08-03T09:46:57.484Z,8.53
2018-08-03T09:49:26.072Z,9.30
2018-08-03T09:51:54.529Z,6.53
2018-08-03T09:54:23.049Z,7.47
2018-08-03T09:56:51.474Z,9.33
2018-08-03T09:59:19.911Z,7.23
2018-08-03T10:01:48.352Z,7.20
2018-08-03T10:04:17.450Z,8.87
2018-08-03T10:06:45.918Z,6.50
2018-08-03T10:09:14.406Z,6.20
2018-08-03T10:11:42.894Z,6.97
2018-08-03T10:14:11.631Z,6.70
2018-08-03T10:16:40.098Z,7.00
2018-08-03T10:19:08.942Z,7.20
2018-08-03T10:21:37.445Z,8.67
2018-08-03T10:24:05.942Z,6.20
2018-08-03T10:26:34.676Z,7.20
2018-08-03T10:29:03.567Z,8.90
2018-08-03T10:31:32.340Z,6.97
2018-08-03T10:34:00.848Z,6.30
2018-08-03T10:36:29.345Z,6.80
2018-08-03T10:38:57.847Z,9.50
2018-08-03T10:41:26.576Z,7.03
2018-08-03T10:43:55.330Z,8.73
2018-08-03T10:46:23.845Z,5.80
2018-08-03T10:48:52.670Z,6.57
2018-08-03T10:51:21.758Z,5.87
2018-08-03T10:53:50.510Z,6.57
2018-08-03T10:56:19.231Z,5.53
2018-08-03T10:58:47.722Z,5.83
2018-08-03T11:01:16.268Z,5.40
2018-08-03T11:03:44.742Z,8.27
2018-08-03T11:06:13.530Z,6.40
2018-08-03T11:08:42.296Z,5.53
2018-08-03T11:11:11.044Z,7.70
2018-08-03T11:13:39.539Z,6.00
2018-08-03T11:16:07.618Z,6.80
2018-08-03T11:18:36.123Z,5.83
2018-08-03T11:21:04.889Z,6.60
2018-08-03T11:23:33.651Z,5.97
2018-08-03T11:26:02.399Z,6.10
2018-08-03T11:28:30.846Z,6.33
2018-08-03T11:30:59.572Z,11.23
2018-08-03T11:33:28.021Z,5.53
2018-08-03T11:35:56.434Z,5.73
2018-08-03T11:38:24.896Z,5.70
2018-08-03T11:40:53.321Z,6.07
2018-08-03T11:43:22.288Z,5.17
2018-08-03T11:45:51.151Z,7.53
2018-08-03T11:48:19.630Z,5.50
2018-08-03T11:50:48.375Z,4.93
2018-08-03T11:53:16.831Z,5.93
2018-08-03T11:55:45.574Z,5.20
2018-08-03T11:58:13.995Z,9.13
2018-08-03T12:00:43.044Z,5.40
2018-08-03T12:03:11.453Z,8.77
2018-08-03T12:05:39.925Z,5.17
2018-08-03T12:08:08.416Z,5.40
2018-08-03T12:10:37.198Z,5.37
2018-08-03T12:13:06.214Z,5.43
2018-08-03T12:15:34.677Z,5.23
2018-08-03T12:18:03.355Z,5.00
2018-08-03T12:20:31.807Z,4.80
2018-08-03T12:23:00.791Z,5.23
2018-08-03T12:25:29.261Z,10.70
2018-08-03T12:27:57.970Z,5.27
2018-08-03T12:30:26.422Z,4.50
2018-08-03T12:32:54.866Z,4.50
2018-08-03T12:35:23.310Z,7.53
2018-08-03T12:37:51.998Z,4.23
2018-08-03T12:40:20.477Z,5.13
2018-08-03T12:42:49.186Z,4.43
2018-08-03T12:45:17.975Z,4.57
2018-08-03T12:47:46.408Z,5.13
2018-08-03T12:50:14.881Z,4.60
2018-08-03T12:52:43.357Z,4.30
2018-08-03T12:55:12.026Z,5.63
2018-08-03T12:57:40.452Z,4.87
2018-08-03T13:00:09.734Z,5.30
2018-08-03T13:02:38.762Z,4.43
2018-08-03T13:05:07.514Z,6.60
2018-08-03T13:07:36.079Z,4.50
2018-08-03T13:10:05.038Z,9.33
2018-08-03T13:12:33.490Z,4.03
2018-08-03T13:15:02.236Z,4.03
2018-08-03T13:17:31.307Z,9.70
2018-08-03T13:20:00.199Z,4.10
2018-08-03T13:22:28.970Z,4.20
2018-08-03T13:24:57.470Z,5.13
2018-08-03T13:27:25.956Z,7.00
2018-08-03T13:29:54.786Z,6.63
2018-08-03T13:32:23.854Z,4.50
2018-08-03T13:34:52.395Z,5.90
2018-08-03T13:37:20.907Z,4.00
2018-08-03T13:39:49.998Z,4.90
2018-08-03T13:42:18.482Z,4.20
2018-08-03T13:44:47.216Z,4.33
2018-08-03T13:47:15.979Z,4.33
2018-08-03T13:49:44.503Z,4.47
2018-08-03T13:52:12.975Z,4.27
2018-08-03T13:54:41.487Z,4.63
2018-08-03T13:57:09.951Z,4.37
2018-08-03T13:59:38.780Z,4.50
2018-08-03T14:02:15.024Z,4.90
2018-08-03T14:04:43.558Z,3.83
2018-08-03T14:07:12.091Z,4.80
2018-08-03T14:09:40.853Z,3.80
2018-08-03T14:12:09.722Z,4.77
2018-08-03T14:14:38.747Z,4.10
2018-08-03T14:17:07.400Z,4.23
2018-08-03T14:19:36.263Z,4.30
2018-08-03T14:22:05.400Z,4.30
2018-08-03T14:24:34.596Z,4.53
2018-08-03T14:27:03.738Z,8.70
2018-08-03T14:29:32.577Z,3.93
2018-08-03T14:32:01.239Z,3.77
2018-08-03T14:34:29.746Z,4.13
2018-08-03T14:36:58.264Z,4.70
2018-08-03T14:39:27.287Z,4.10
2018-08-03T14:41:56.152Z,3.87
2018-08-03T14:44:24.914Z,4.63
2018-08-03T14:46:53.698Z,4.30
2018-08-03T14:49:22.165Z,5.63
2018-08-03T14:51:50.689Z,4.20
2018-08-03T14:54:19.866Z,6.47
2018-08-03T14:56:48.405Z,6.47
2018-08-03T14:59:17.115Z,4.80
2018-08-03T15:01:46.007Z,6.50
2018-08-03T15:04:14.792Z,5.20
2018-08-03T15:06:43.654Z,5.00
2018-08-03T15:09:13.225Z,4.30
2018-08-03T15:11:41.769Z,4.57
2018-08-03T15:14:10.306Z,4.10
2018-08-03T15:16:39.135Z,7.80
2018-08-03T15:19:08.323Z,4.70
2018-08-03T15:21:37.114Z,3.77
2018-08-03T15:24:05.895Z,3.80
2018-08-03T15:26:34.460Z,6.67
2018-08-03T15:29:03.268Z,5.10
2018-08-03T15:31:31.730Z,4.70
2018-08-03T15:34:00.461Z,5.60
2018-08-03T15:36:29.514Z,5.40
2018-08-03T15:38:57.985Z,3.77
2018-08-03T15:41:26.900Z,4.27
2018-08-03T15:43:55.407Z,3.90
2018-08-03T15:46:23.924Z,4.73
2018-08-03T15:48:52.424Z,5.30
2018-08-03T15:51:21.211Z,4.93
2018-08-03T15:53:49.936Z,3.80
2018-08-03T15:56:18.433Z,4.70
2018-08-03T15:58:47.377Z,3.40
2018-08-03T16:01:15.478Z,3.80
2018-08-03T16:03:44.260Z,4.13
2018-08-03T16:06:12.776Z,3.73
2018-08-03T16:08:41.201Z,4.20
2018-08-03T16:11:09.947Z,3.30
2018-08-03T16:13:38.372Z,4.17
2018-08-03T16:16:06.834Z,7.93
2018-08-03T16:18:35.248Z,4.50
2018-08-03T16:21:03.699Z,4.20
2018-08-03T16:23:32.454Z,4.50
2018-08-03T16:26:01.047Z,7.77
2018-08-03T16:28:29.604Z,3.80
2018-08-03T16:30:58.331Z,4.07
2018-08-03T16:33:26.777Z,4.13
2018-08-03T16:35:55.519Z,4.20
2018-08-03T16:38:24.055Z,4.30
2018-08-03T16:40:52.575Z,6.50
2018-08-03T16:43:21.052Z,4.80
2018-08-03T16:45:49.539Z,4.90
2018-08-03T16:48:17.995Z,6.30
2018-08-03T16:50:46.746Z,4.30
2018-08-03T16:53:15.500Z,5.90
2018-08-03T16:55:43.947Z,4.43
2018-08-03T16:58:12.440Z,6.33
2018-08-03T17:00:41.171Z,4.10
2018-08-03T17:03:09.909Z,3.87
2018-08-03T17:05:38.115Z,4.20
2018-08-03T17:08:07.082Z,4.93
2018-08-03T17:10:35.796Z,5.10
2018-08-03T17:13:04.271Z,7.13
2018-08-03T17:15:32.728Z,4.23
2018-08-03T17:18:01.183Z,3.93
2018-08-03T17:20:29.626Z,4.77
2018-08-03T17:22:58.107Z,4.67
2018-08-03T17:25:26.551Z,4.20
2018-08-03T17:27:54.998Z,5.87
2018-08-03T17:30:23.431Z,4.13
2018-08-03T17:32:52.148Z,4.47
2018-08-03T17:35:23.757Z,4.30
2018-08-03T17:37:52.504Z,4.90
2018-08-03T17:40:21.269Z,4.93
2018-08-03T17:42:49.782Z,4.20
2018-08-03T17:45:18.228Z,4.10
2018-08-03T17:47:46.712Z,4.10
2018-08-03T17:50:15.163Z,4.93
2018-08-03T17:52:43.592Z,4.00
2018-08-03T17:55:12.305Z,5.23
2018-08-03T17:57:40.744Z,4.80
2018-08-03T18:00:09.186Z,4.63
2018-08-03T18:02:37.868Z,4.83
2018-08-03T18:05:06.759Z,4.60
2018-08-03T18:07:35.239Z,9.10
2018-08-03T18:10:04.006Z,10.23
2018-08-03T18:12:32.818Z,4.87
2018-08-03T18:15:01.305Z,7.03
2018-08-03T18:17:29.749Z,3.97
2018-08-03T18:19:58.857Z,5.07
2018-08-03T18:22:27.343Z,5.60
2018-08-03T18:24:55.817Z,5.10
2018-08-03T18:27:24.572Z,9.17
2018-08-03T18:29:53.011Z,6.10
2018-08-03T18:32:21.534Z,4.23
2018-08-03T18:34:49.959Z,4.70
2018-08-03T18:37:19.054Z,5.43
2018-08-03T18:39:47.478Z,4.07
2018-08-03T18:42:15.918Z,4.47
2018-08-03T18:44:44.629Z,5.60
2018-08-03T18:47:13.135Z,4.80
2018-08-03T18:49:41.554Z,4.90
2018-08-03T18:52:10.048Z,5.87
2018-08-03T18:54:38.499Z,5.47
2018-08-03T18:57:07.246Z,4.20
2018-08-03T18:59:36.020Z,5.20
2018-08-03T19:02:04.539Z,3.83
2018-08-03T19:04:33.217Z,4.90
2018-08-03T19:07:02.019Z,6.03
2018-08-03T19:09:30.133Z,4.70
2018-08-03T19:11:58.651Z,7.00
2018-08-03T19:14:27.104Z,4.97
2018-08-03T19:16:55.902Z,7.23
2018-08-03T19:19:24.610Z,4.50
2018-08-03T19:21:53.135Z,7.17
2018-08-03T19:24:21.567Z,5.03
2018-08-03T19:26:50.019Z,4.23
2018-08-03T19:29:18.475Z,5.83
2018-08-03T19:31:46.917Z,4.60
2018-08-03T19:34:15.361Z,5.10
2018-08-03T19:36:43.829Z,4.53
2018-08-03T19:39:12.551Z,6.50
2018-08-03T19:41:40.749Z,5.70
2018-08-03T19:44:09.218Z,7.47
2018-08-03T19:46:37.883Z,4.80
2018-08-03T19:49:06.119Z,7.07
2018-08-03T19:51:34.588Z,5.23
2018-08-03T19:54:03.066Z,6.70
2018-08-03T19:56:31.519Z,5.03
2018-08-03T19:59:00.096Z,5.90
2018-08-03T20:01:28.456Z,7.40
2018-08-03T20:03:57.210Z,6.70
2018-08-03T20:06:25.968Z,5.63
2018-08-03T20:08:54.490Z,6.20
2018-08-03T20:11:23.330Z,7.73
2018-08-03T20:13:51.888Z,5.20
2018-08-03T20:16:20.411Z,8.27
2018-08-03T20:18:49.330Z,6.97
2018-08-03T20:21:17.827Z,5.20
2018-08-03T20:23:46.740Z,5.10
2018-08-03T20:26:15.231Z,5.80
2018-08-03T20:28:43.758Z,6.80
2018-08-03T20:31:11.952Z,5.43
2018-08-03T20:33:40.465Z,6.53
2018-08-03T20:36:08.951Z,8.63
2018-08-03T20:38:37.495Z,4.83
2018-08-03T20:41:06.027Z,5.87
2018-08-03T20:43:34.781Z,6.40
2018-08-03T20:46:03.298Z,4.70
2018-08-03T20:48:31.793Z,6.87
2018-08-03T20:51:01.039Z,5.73
2018-08-03T20:53:36.378Z,4.70
2018-08-03T20:56:05.206Z,4.93
2018-08-03T20:58:34.015Z,5.40
2018-08-03T21:01:02.872Z,8.93
2018-08-03T21:03:31.686Z,6.67
2018-08-03T21:06:00.208Z,5.97
2018-08-03T21:08:28.714Z,8.73
2018-08-03T21:10:57.467Z,5.93
2018-08-03T21:13:26.224Z,13.13
2018-08-03T21:15:54.675Z,6.47
2018-08-03T21:18:23.179Z,8.90
2018-08-03T21:20:51.654Z,7.87
2018-08-03T21:23:20.187Z,6.30
2018-08-03T21:25:48.674Z,6.50
2018-08-03T21:28:17.166Z,6.43
2018-08-03T21:30:45.667Z,5.47
2018-08-03T21:33:14.425Z,6.10
2018-08-03T21:35:42.918Z,6.40
2018-08-03T21:38:11.817Z,10.97
2018-08-03T21:40:40.298Z,8.17
2018-08-03T21:43:08.853Z,7.80
2018-08-03T21:45:37.592Z,6.80
2018-08-03T21:48:06.345Z,6.87
2018-08-03T21:50:35.102Z,6.33
2018-08-03T21:53:03.596Z,9.83
2018-08-03T21:55:32.057Z,5.70
2018-08-03T21:58:00.810Z,6.40
2018-08-03T22:00:29.298Z,5.83
2018-08-03T22:02:57.809Z,5.70
2018-08-03T22:05:26.307Z,6.00
2018-08-03T22:07:55.298Z,6.90
2018-08-03T22:10:23.838Z,7.40
2018-08-03T22:12:52.330Z,7.90
2018-08-03T22:15:20.798Z,7.03
2018-08-03T22:17:49.317Z,5.20
2018-08-03T22:20:17.926Z,6.73
2018-08-03T22:22:46.385Z,7.30
2018-08-03T22:25:14.863Z,6.57
2018-08-03T22:27:43.317Z,6.43
2018-08-03T22:30:12.161Z,8.93
2018-08-03T22:32:40.695Z,7.00
2018-08-03T22:35:09.415Z,7.67
2018-08-03T22:37:38.183Z,6.80
2018-08-03T22:40:06.765Z,8.37
2018-08-03T22:42:35.617Z,10.80
2018-08-03T22:45:04.252Z,5.90
2018-08-03T22:47:32.977Z,6.00
2018-08-03T22:50:01.459Z,7.10
2018-08-03T22:52:30.299Z,6.60
2018-08-03T22:55:00.218Z,8.00
2018-08-03T22:57:28.686Z,8.50
2018-08-03T22:59:57.173Z,5.63
2018-08-03T23:02:25.963Z,7.63
2018-08-03T23:04:54.486Z,6.73
2018-08-03T23:07:22.963Z,5.77
2018-08-03T23:09:52.103Z,6.67
2018-08-03T23:12:20.570Z,5.70
2018-08-03T23:14:49.059Z,6.17
2018-08-03T23:17:17.547Z,6.63
2018-08-03T23:19:46.045Z,9.30
2018-08-03T23:22:14.506Z,5.97
2018-08-03T23:24:43.298Z,6.77
2018-08-03T23:27:11.763Z,5.80
2018-08-03T23:29:40.268Z,6.47
2018-08-03T23:32:09.023Z,10.27
2018-08-03T23:34:38.027Z,7.50
2018-08-03T23:37:07.119Z,5.83
2018-08-03T23:39:35.651Z,7.03
2018-08-03T23:42:04.131Z,9.13
2018-08-03T23:44:32.637Z,6.23
2018-08-03T23:47:01.102Z,7.93
2018-08-03T23:49:29.612Z,6.60
2018-08-03T23:51:58.342Z,9.00
2018-08-03T23:54:27.693Z,7.17
2018-08-03T23:56:56.486Z,7.47
2018-08-03T23:59:25.337Z,9.47
